Time;durP1;ratioP1;P1;durP2;ratioP2;P2;SDS_P1;SDS_P2;PMS_P1;PMS_P2;Temp;Humidity;BMP_temperature;BMP_pressure;BME280_temperature;BME280_humidity;BME280_pressure;Samples;Min_cycle;Max_cycle;Signal;HPM_P1;HPM_P2
2021/05/22 00:00:24;;;;;;;9.53;1.70;;;;;;;16.85;53.23;100655.50;4916066;29;20638;-60
2021/05/22 00:02:51;;;;;;;5.20;1.47;;;;;;;16.54;53.46;100577.28;4917529;29;20453;-60
2021/05/22 00:05:17;;;;;;;7.23;2.70;;;;;;;16.92;52.90;100641.81;4917232;29;20497;-60
2021/05/22 00:07:45;;;;;;;4.20;1.77;;;;;;;16.93;52.65;100642.63;4917175;29;20052;-60
2021/05/22 00:10:12;;;;;;;5.10;1.27;;;;;;;16.84;53.19;100630.44;4917078;29;20056;-63
2021/05/22 00:12:41;;;;;;;10.33;1.60;;;;;;;16.94;53.53;100630.19;4916944;29;20091;-63
2021/05/22 00:15:10;;;;;;;6.27;1.20;;;;;;;16.93;53.41;100625.72;4917068;29;20184;-62
2021/05/22 00:17:37;;;;;;;4.88;1.45;;;;;;;16.86;53.49;100619.69;4916922;29;20103;-62
2021/05/22 00:20:06;;;;;;;3.47;1.53;;;;;;;16.98;53.43;100623.56;4917240;29;20127;-65
2021/05/22 00:22:33;;;;;;;6.90;1.60;;;;;;;16.95;53.08;100629.84;4917061;29;20091;-62
2021/05/22 00:25:00;;;;;;;5.47;2.23;;;;;;;17.00;53.11;100631.72;4916862;29;20091;-76
2021/05/22 00:27:27;;;;;;;5.60;1.70;;;;;;;16.98;53.39;100631.22;4917041;29;20135;-76
2021/05/22 00:29:54;;;;;;;5.40;2.20;;;;;;;16.98;53.64;100629.22;4917333;29;20564;-76
2021/05/22 00:32:21;;;;;;;5.97;1.73;;;;;;;16.80;53.82;100593.59;4917191;29;20048;-69
2021/05/22 00:34:48;;;;;;;5.57;1.57;;;;;;;16.95;54.05;100609.28;4916806;29;20485;-74
2021/05/22 00:37:15;;;;;;;9.27;1.80;;;;;;;16.95;53.93;100589.53;4916916;29;20087;-62
2021/05/22 00:39:43;;;;;;;8.63;1.67;;;;;;;16.95;53.99;100617.75;4916496;29;20127;-68
2021/05/22 00:42:10;;;;;;;3.73;1.60;;;;;;;16.95;53.92;100617.75;4916343;29;20088;-68
2021/05/22 00:45:25;;;;;;;10.93;1.50;;;;;;;16.89;53.89;100608.59;4916208;29;20048;-66
2021/05/22 00:47:55;;;;;;;6.60;1.50;;;;;;;16.92;54.28;100607.09;4907974;29;20091;-65
2021/05/22 00:50:31;;;;;;;14.07;1.73;;;;;;;16.89;54.15;100605.78;4916641;29;20083;-64
2021/05/22 00:53:00;;;;;;;6.20;1.43;;;;;;;16.95;53.99;100609.28;4916461;29;20092;-67
2021/05/22 00:55:27;;;;;;;5.67;1.73;;;;;;;16.95;54.05;100612.09;4915505;29;20052;-63
2021/05/22 00:57:54;;;;;;;9.47;2.03;;;;;;;16.92;54.23;100610.78;4916266;29;20080;-65
2021/05/22 01:00:36;;;;;;;4.33;1.47;;;;;;;16.92;54.10;100602.31;4899457;29;20477;-67
2021/05/22 01:03:04;;;;;;;4.90;1.43;;;;;;;16.77;54.47;100571.66;4916164;29;20556;-68
2021/05/22 01:05:31;;;;;;;10.90;1.73;;;;;;;16.96;55.10;100582.75;4916378;29;20100;-69
2021/05/22 01:07:58;;;;;;;8.17;1.70;;;;;;;16.93;55.12;100589.88;4916145;29;20551;-67
2021/05/22 01:10:26;;;;;;;18.00;3.00;;;;;;;16.87;55.35;100604.44;4916184;29;20099;-63
2021/05/22 01:12:55;;;;;;;10.07;2.60;;;;;;;16.79;56.02;100587.13;4916563;29;20092;-64
2021/05/22 01:15:26;;;;;;;10.40;1.98;;;;;;;16.86;56.22;100599.94;4916204;29;20044;-66
2021/05/22 01:17:54;;;;;;;5.63;1.37;;;;;;;16.87;56.15;100590.31;4916311;29;20112;-66
2021/05/22 01:20:35;;;;;;;6.77;1.40;;;;;;;16.87;56.58;100604.44;4916290;29;20121;-64
2021/05/22 01:23:07;;;;;;;9.03;1.50;;;;;;;16.93;56.25;100597.50;4916422;29;20099;-55
2021/05/22 01:25:41;;;;;;;6.00;1.80;;;;;;;16.93;56.14;100603.16;4916267;29;20080;-59
2021/05/22 01:28:11;;;;;;;10.17;2.43;;;;;;;16.73;56.15;100565.81;4916427;29;20083;-61
2021/05/22 01:30:39;;;;;;;4.07;1.40;;;;;;;16.65;56.33;100555.31;4916484;29;20051;-62
2021/05/22 01:33:08;;;;;;;6.57;1.80;;;;;;;16.87;56.48;100590.31;4916148;29;20461;-64
2021/05/22 01:35:36;;;;;;;13.18;2.15;;;;;;;16.87;56.49;100587.50;4916326;29;20127;-59
2021/05/22 01:38:04;;;;;;;5.30;1.40;;;;;;;16.83;56.28;100581.69;4916220;29;20135;-59
2021/05/22 01:40:31;;;;;;;7.37;1.40;;;;;;;16.62;56.45;100547.50;4916142;29;20052;-62
2021/05/22 01:42:58;;;;;;;9.07;1.67;;;;;;;16.79;56.11;100589.13;4915944;29;20465;-66
2021/05/22 01:45:31;;;;;;;8.97;1.93;;;;;;;16.80;56.55;100600.06;4916170;29;20123;-65
2021/05/22 01:48:02;;;;;;;5.40;2.15;;;;;;;16.79;56.57;100591.94;4916232;29;20060;-63
2021/05/22 01:50:34;;;;;;;6.97;1.90;;;;;;;16.73;56.70;100588.38;4916403;29;20048;-63
2021/05/22 01:53:04;;;;;;;7.17;2.20;;;;;;;16.69;56.73;100587.34;4916104;29;20052;-63
2021/05/22 01:55:33;;;;;;;7.63;1.50;;;;;;;16.29;56.66;100528.03;4915978;29;20084;-63
2021/05/22 01:58:01;;;;;;;5.38;1.67;;;;;;;16.65;56.28;100594.78;4916867;29;20055;-61
2021/05/22 02:00:28;;;;;;;6.40;1.70;;;;;;;16.49;56.66;100570.94;4919837;29;20062;-60
2021/05/22 02:03:09;;;;;;;6.33;1.40;;;;;;;16.42;56.47;100559.28;4919328;29;20140;-60
2021/05/22 02:05:38;;;;;;;5.73;1.53;;;;;;;16.58;56.48;100597.19;4919785;29;20389;-60
2021/05/22 02:08:14;;;;;;;4.60;1.30;;;;;;;16.52;56.55;100590.03;4902495;29;20461;-60
2021/05/22 02:10:42;;;;;;;6.43;1.70;;;;;;;16.60;56.51;100606.19;4919189;29;20099;-60
2021/05/22 02:13:09;;;;;;;7.17;1.40;;;;;;;16.57;56.53;100606.81;4919617;29;20094;-60
2021/05/22 02:15:39;;;;;;;7.07;1.83;;;;;;;16.57;56.48;100606.81;4919205;29;20433;-59
2021/05/22 02:18:07;;;;;;;;;;;;;;;16.61;56.21;100590.09;4919484;29;20107;-60
2021/05/22 02:20:34;;;;;;;5.30;0.93;;;;;;;16.57;56.18;100573.81;4919109;29;19981;-61
2021/05/22 02:23:03;;;;;;;4.30;2.17;;;;;;;16.38;56.10;100541.38;4917818;29;20099;-59
2021/05/22 02:25:31;;;;;;;3.63;1.17;;;;;;;16.50;56.22;100567.78;4919294;29;20434;-60
2021/05/22 02:28:02;;;;;;;4.50;1.73;;;;;;;16.45;56.10;100558.66;4919217;29;20052;-59
2021/05/22 02:30:29;;;;;;;6.27;1.23;;;;;;;16.47;56.37;100561.97;4918959;29;20052;-60
2021/05/22 02:32:57;;;;;;;3.23;1.10;;;;;;;16.49;56.06;100568.13;4919281;29;20461;-59
2021/05/22 02:35:25;;;;;;;4.23;1.67;;;;;;;16.44;56.35;100568.25;4918898;29;20048;-60
2021/05/22 02:37:55;;;;;;;6.50;1.80;;;;;;;16.32;56.18;100551.91;4919243;29;20076;-66
2021/05/22 02:40:27;;;;;;;6.22;1.33;;;;;;;16.44;56.25;100556.97;4918804;29;20461;-59
2021/05/22 02:43:03;;;;;;;3.07;1.20;;;;;;;16.42;56.27;100542.38;4918903;29;20150;-58
2021/05/22 02:45:32;;;;;;;3.30;1.30;;;;;;;16.40;56.26;100562.41;4918529;29;20048;-63
2021/05/22 02:48:02;;;;;;;11.03;1.73;;;;;;;16.27;56.38;100550.06;4917462;29;20075;-60
2021/05/22 02:50:30;;;;;;;;;;;;;;;16.41;55.78;100569.75;4918847;29;20602;-61
2021/05/22 02:52:59;;;;;;;3.70;1.37;;;;;;;16.42;56.10;100576.19;4918538;29;20013;-61
2021/05/22 02:55:29;;;;;;;5.57;1.93;;;;;;;16.34;56.25;100580.59;4901916;29;20052;-61
2021/05/22 02:57:57;;;;;;;9.10;2.47;;;;;;;16.35;56.39;100571.84;4917125;29;20311;-60
2021/05/22 03:00:24;;;;;;;9.17;1.37;;;;;;;16.35;56.31;100577.47;4918248;29;20083;-60
2021/05/22 03:02:52;;;;;;;5.43;1.80;;;;;;;16.33;56.60;100582.59;4918117;29;20139;-60
2021/05/22 03:05:19;;;;;;;4.33;1.53;;;;;;;16.33;56.62;100571.31;4918487;29;20052;-60
2021/05/22 03:07:46;;;;;;;5.67;1.30;;;;;;;16.31;56.59;100568.00;4918015;29;20564;-60
2021/05/22 03:10:15;;;;;;;5.10;1.30;;;;;;;16.30;56.94;100569.13;4917101;29;20064;-60
2021/05/22 03:12:42;;;;;;;3.03;1.20;;;;;;;16.11;56.99;100543.97;4918444;29;20076;-61
2021/05/22 03:15:10;;;;;;;4.33;1.30;;;;;;;16.33;56.84;100588.22;4917972;29;20056;-61
2021/05/22 03:17:37;;;;;;;11.33;1.93;;;;;;;16.34;57.06;100584.28;4918028;29;20099;-61
2021/05/22 03:20:06;;;;;;;8.10;1.27;;;;;;;16.32;57.01;100578.09;4918006;29;20544;-60
2021/05/22 03:22:33;;;;;;;6.23;1.33;;;;;;;16.22;57.00;100554.97;4917858;29;20056;-60
2021/05/22 03:25:00;;;;;;;3.17;1.20;;;;;;;16.15;57.04;100552.59;4901049;29;20052;-60
2021/05/22 03:27:27;;;;;;;3.63;1.80;;;;;;;16.28;56.95;100568.63;4918017;29;20079;-60
2021/05/22 03:29:54;;;;;;;4.83;1.43;;;;;;;16.27;57.04;100566.97;4918146;29;20468;-61
2021/05/22 03:32:21;;;;;;;5.67;1.10;;;;;;;16.22;57.38;100567.09;4917946;29;20369;-61
2021/05/22 03:34:47;;;;;;;5.30;1.77;;;;;;;16.14;57.47;100558.53;4900944;29;20052;-62
2021/05/22 03:37:15;;;;;;;5.07;1.33;;;;;;;16.16;57.39;100565.53;4917663;29;20044;-61
2021/05/22 03:39:42;;;;;;;3.63;1.10;;;;;;;16.06;57.62;100552.50;4917576;29;20080;-62
2021/05/22 03:42:09;;;;;;;8.67;1.50;;;;;;;16.06;57.47;100558.16;4900739;29;20477;-61
2021/05/22 03:44:36;;;;;;;6.73;2.00;;;;;;;15.91;57.44;100533.16;4917435;29;20103;-62
2021/05/22 03:47:04;;;;;;;8.30;1.30;;;;;;;16.10;57.46;100569.63;4916395;29;20096;-63
2021/05/22 03:49:31;;;;;;;2.27;0.90;;;;;;;16.17;57.42;100589.75;4917569;29;20055;-66
2021/05/22 03:51:58;;;;;;;4.57;1.20;;;;;;;16.02;57.38;100561.94;4917410;29;20512;-66
2021/05/22 03:54:25;;;;;;;4.87;1.10;;;;;;;16.11;57.36;100560.84;4917250;29;20135;-65
2021/05/22 03:56:52;;;;;;;5.87;1.93;;;;;;;16.11;57.26;100560.03;4916657;29;20426;-67
2021/05/22 03:59:19;;;;;;;6.57;1.50;;;;;;;16.16;57.23;100571.16;4917660;29;20094;-64
2021/05/22 04:01:46;;;;;;;10.70;1.23;;;;;;;16.24;57.35;100576.06;4917449;29;20142;-59
2021/05/22 04:04:13;;;;;;;6.10;1.40;;;;;;;16.06;57.00;100554.50;4917191;29;20480;-66
2021/05/22 04:06:40;;;;;;;3.90;1.27;;;;;;;16.29;57.19;100583.56;4917117;29;20056;-64
2021/05/22 04:09:07;;;;;;;4.97;1.13;;;;;;;16.24;57.36;100559.16;4917169;29;20056;-64
2021/05/22 04:11:34;;;;;;;8.87;1.60;;;;;;;16.27;57.46;100586.69;4917274;29;20083;-64
2021/05/22 04:14:00;;;;;;;6.67;1.77;;;;;;;16.29;57.45;100577.91;4917004;29;20048;-64
2021/05/22 04:16:27;;;;;;;5.07;1.20;;;;;;;16.26;57.63;100564.47;4917579;29;20449;-64
2021/05/22 04:18:55;;;;;;;6.73;1.10;;;;;;;16.25;57.75;100571.25;4916857;29;20048;-64
2021/05/22 04:21:23;;;;;;;4.83;1.17;;;;;;;16.05;58.02;100544.41;4899960;29;20536;-64
2021/05/22 04:23:50;;;;;;;5.20;1.50;;;;;;;16.25;58.25;100580.53;4916766;29;20512;-64
2021/05/22 04:26:17;;;;;;;6.20;1.67;;;;;;;16.24;58.18;100584.50;4915837;29;20408;-62
2021/05/22 04:28:44;;;;;;;3.10;0.83;;;;;;;16.09;57.74;100567.97;4916775;29;20083;-63
2021/05/22 04:31:11;;;;;;;5.93;1.20;;;;;;;16.22;57.65;100584.00;4917216;29;20072;-63
2021/05/22 04:33:38;;;;;;;6.97;1.30;;;;;;;16.22;57.86;100575.53;4916773;29;20457;-63
2021/05/22 04:36:06;;;;;;;5.77;1.20;;;;;;;16.24;57.89;100578.03;4916745;29;20090;-65
2021/05/22 04:38:33;;;;;;;7.13;1.40;;;;;;;16.24;57.97;100587.34;4916799;29;20052;-65
2021/05/22 04:41:00;;;;;;;7.30;1.30;;;;;;;16.21;58.19;100590.78;4916772;29;20504;-65
2021/05/22 04:43:27;;;;;;;5.77;1.60;;;;;;;16.20;57.98;100574.19;4916488;29;20048;-67
2021/05/22 04:45:54;;;;;;;13.63;1.30;;;;;;;16.08;57.78;100549.41;4899906;29;20468;-70
2021/05/22 04:48:21;;;;;;;2.90;1.17;;;;;;;16.23;57.77;100574.38;4915450;29;20048;-66
2021/05/22 04:50:48;;;;;;;5.00;1.10;;;;;;;16.09;58.07;100548.22;4916875;29;20071;-63
2021/05/22 04:53:15;;;;;;;9.23;1.67;;;;;;;16.21;57.99;100559.78;4916717;29;20047;-66
2021/05/22 04:55:42;;;;;;;2.70;1.07;;;;;;;16.22;58.15;100563.44;4916784;29;20414;-65
2021/05/22 04:58:11;;;;;;;6.07;1.30;;;;;;;16.24;58.03;100567.59;4916241;29;20052;-65
2021/05/22 05:00:37;;;;;;;2.67;1.07;;;;;;;16.21;57.97;100567.41;4916336;29;20076;-62
2021/05/22 05:03:05;;;;;;;4.13;1.13;;;;;;;16.01;57.82;100549.00;4916240;29;20074;-61
2021/05/22 05:05:32;;;;;;;9.87;1.30;;;;;;;16.18;57.71;100584.94;4916592;29;20048;-58
2021/05/22 05:07:59;;;;;;;9.10;1.53;;;;;;;16.04;57.51;100568.91;4916398;29;20095;-62
2021/05/22 05:10:27;;;;;;;5.93;1.30;;;;;;;16.21;57.99;100599.22;4916184;29;20061;-62
2021/05/22 05:12:54;;;;;;;4.43;1.60;;;;;;;16.22;57.92;100606.53;4916702;29;20070;-62
2021/05/22 05:15:21;;;;;;;2.97;1.00;;;;;;;16.17;58.00;100595.41;4916071;29;20052;-62
2021/05/22 05:17:48;;;;;;;8.03;1.97;;;;;;;16.20;58.26;100600.38;4916172;29;20080;-63
2021/05/22 05:20:15;;;;;;;4.13;1.10;;;;;;;16.13;58.40;100574.63;4916338;29;20098;-63
2021/05/22 05:22:42;;;;;;;4.77;1.40;;;;;;;15.95;57.93;100544.63;4899364;29;20094;-64
2021/05/22 05:25:10;;;;;;;3.37;1.40;;;;;;;16.14;58.12;100559.41;4916775;29;20100;-59
2021/05/22 05:27:37;;;;;;;7.53;1.27;;;;;;;16.23;57.93;100610.19;4916234;29;20075;-60
2021/05/22 05:30:05;;;;;;;6.63;1.50;;;;;;;16.22;58.03;100597.25;4916043;29;20068;-61
2021/05/22 05:32:32;;;;;;;12.57;1.50;;;;;;;16.18;58.11;100599.88;4916589;29;20127;-61
2021/05/22 05:34:59;;;;;;;3.73;1.30;;;;;;;16.14;57.94;100598.84;4919932;29;20185;-60
2021/05/22 05:37:26;;;;;;;9.77;1.10;;;;;;;16.24;58.07;100625.91;4919795;29;20354;-59
2021/05/22 05:39:53;;;;;;;4.40;1.13;;;;;;;16.26;57.89;100635.72;4918690;29;20056;-62
2021/05/22 05:42:20;;;;;;;6.13;1.20;;;;;;;16.28;58.05;100644.72;4920077;29;20086;-70
2021/05/22 05:44:47;;;;;;;3.63;1.07;;;;;;;16.26;58.55;100646.19;4919761;29;20044;-62
2021/05/22 05:47:14;;;;;;;6.30;2.63;;;;;;;16.24;57.94;100638.06;4919837;29;20088;-60
2021/05/22 05:49:40;;;;;;;5.97;1.70;;;;;;;16.25;57.78;100636.91;4920056;29;20098;-59
2021/05/22 05:52:08;;;;;;;5.17;1.20;;;;;;;16.16;57.96;100607.78;4902854;29;20086;-58
2021/05/22 05:54:35;;;;;;;3.03;1.03;;;;;;;16.26;58.35;100624.47;4919874;29;20382;-65
2021/05/22 05:57:02;;;;;;;4.93;1.33;;;;;;;16.29;58.24;100628.63;4919575;29;20566;-60
2021/05/22 05:59:29;;;;;;;4.50;1.27;;;;;;;15.87;58.20;100558.31;4919336;29;20076;-59
2021/05/22 06:01:56;;;;;;;5.93;1.30;;;;;;;16.21;58.15;100621.78;4919506;29;20150;-61
2021/05/22 06:04:23;;;;;;;21.63;1.77;;;;;;;16.32;58.10;100637.28;4919577;29;20048;-60
2021/05/22 06:06:50;;;;;;;10.53;1.03;;;;;;;16.11;58.43;100602.28;4919585;29;20437;-59
2021/05/22 06:09:17;;;;;;;2.83;1.00;;;;;;;16.25;58.61;100633.25;4902641;29;20079;-59
2021/05/22 06:11:44;;;;;;;4.50;1.10;;;;;;;16.27;58.53;100623.34;4919471;29;20056;-58
2021/05/22 06:14:27;;;;;;;2.80;1.10;;;;;;;16.31;58.58;100634.81;4919322;29;20056;-61
2021/05/22 06:16:54;;;;;;;4.70;1.17;;;;;;;16.27;58.66;100631.78;4918455;29;20048;-60
2021/05/22 06:19:21;;;;;;;7.07;1.57;;;;;;;16.20;59.06;100631.34;4919639;29;20052;-58
2021/05/22 06:21:48;;;;;;;9.90;1.30;;;;;;;16.15;59.26;100628.66;4918932;29;20052;-58
2021/05/22 06:24:15;;;;;;;5.90;1.57;;;;;;;16.10;59.51;100625.94;4918990;29;20076;-55
2021/05/22 06:26:42;;;;;;;7.17;1.50;;;;;;;16.02;59.27;100623.91;4919298;29;20048;-59
2021/05/22 06:29:09;;;;;;;7.00;1.63;;;;;;;15.90;59.27;100632.91;4918589;29;20088;-59
2021/05/22 06:31:36;;;;;;;4.73;2.17;;;;;;;15.53;59.64;100591.69;4918636;29;20113;-59
2021/05/22 06:34:03;;;;;;;3.17;1.50;;;;;;;15.51;60.04;100610.84;4918787;29;20123;-59
2021/05/22 06:36:30;;;;;;;7.63;1.53;;;;;;;15.86;60.26;100674.94;4918753;29;20090;-59
2021/05/22 06:38:57;;;;;;;10.00;2.00;;;;;;;15.80;59.96;100650.84;4918947;29;20072;-58
2021/05/22 06:41:24;;;;;;;5.20;1.63;;;;;;;16.02;59.89;100672.59;4918751;29;20051;-58
2021/05/22 06:43:51;;;;;;;8.83;1.83;;;;;;;16.11;59.86;100664.25;4918463;29;20158;-59
2021/05/22 06:48:45;;;;;;;4.47;1.60;;;;;;;16.21;59.68;100664.03;4919359;29;20123;-58
2021/05/22 06:51:12;;;;;;;9.90;1.77;;;;;;;16.22;59.54;100671.34;4917349;29;20083;-58
2021/05/22 06:53:39;;;;;;;9.87;2.10;;;;;;;16.14;59.26;100660.81;4918336;29;20107;-59
2021/05/22 06:56:07;;;;;;;8.20;1.53;;;;;;;16.31;58.99;100671.44;4918212;29;20548;-58
2021/05/22 06:58:33;;;;;;;6.67;1.80;;;;;;;16.38;59.06;100676.66;4918816;29;20447;-58
2021/05/22 07:01:00;;;;;;;10.17;1.87;;;;;;;16.34;58.85;100660.38;4918258;29;20100;-58
2021/05/22 07:03:27;;;;;;;7.63;1.53;;;;;;;16.45;58.35;100671.41;4918039;29;20048;-59
2021/05/22 07:05:56;;;;;;;6.33;1.40;;;;;;;16.46;58.07;100664.59;4918182;29;20131;-59
2021/05/22 07:08:23;;;;;;;7.30;1.90;;;;;;;16.52;58.14;100677.44;4916840;29;20556;-61
2021/05/22 07:10:51;;;;;;;6.13;1.33;;;;;;;16.58;57.83;100688.28;4918202;29;20500;-59
2021/05/22 07:13:18;;;;;;;10.03;1.70;;;;;;;16.70;57.84;100689.69;4918062;29;20052;-59
2021/05/22 07:15:45;;;;;;;4.47;1.60;;;;;;;16.83;57.26;100673.91;4917901;29;20094;-60
2021/05/22 07:18:16;;;;;;;10.23;2.63;;;;;;;16.93;56.87;100659.56;4917336;29;20049;-60
2021/05/22 07:20:43;;;;;;;7.63;1.80;;;;;;;17.11;56.91;100668.97;4917150;29;20155;-60
2021/05/22 07:23:10;;;;;;;3.90;1.75;;;;;;;17.11;56.59;100652.88;4916699;29;20087;-59
2021/05/22 07:25:38;;;;;;;7.80;1.45;;;;;;;17.18;56.05;100656.06;4916454;29;20052;-58
2021/05/22 07:28:07;;;;;;;7.83;1.67;;;;;;;16.79;55.59;100606.88;4918085;29;20052;-59
2021/05/22 07:30:34;;;;;;;6.38;1.42;;;;;;;17.05;55.57;100660.63;4917738;29;20078;-60
2021/05/22 07:33:01;;;;;;;5.35;1.52;;;;;;;16.79;55.85;100652.00;4917968;29;20496;-59
2021/05/22 07:35:28;;;;;;;4.80;1.55;;;;;;;16.68;56.04;100666.59;4917683;29;20143;-58
2021/05/22 07:37:55;;;;;;;10.35;1.73;;;;;;;16.49;55.76;100644.25;4917723;29;20064;-59
2021/05/22 07:40:22;;;;;;;5.67;1.30;;;;;;;16.55;56.03;100659.88;4918203;29;20465;-59
2021/05/22 07:42:50;;;;;;;2.63;0.97;;;;;;;16.47;55.89;100660.63;4917657;29;20052;-59
2021/05/22 07:45:18;;;;;;;5.03;0.93;;;;;;;16.44;55.85;100653.63;4917637;29;20044;-59
2021/05/22 07:47:46;;;;;;;5.20;2.27;;;;;;;16.28;56.12;100641.91;4917928;29;20106;-59
2021/05/22 07:50:14;;;;;;;9.77;1.57;;;;;;;16.31;56.12;100634.81;4917537;29;20162;-59
2021/05/22 07:52:41;;;;;;;5.85;1.00;;;;;;;16.37;55.90;100639.16;4917476;29;20594;-59
2021/05/22 07:55:11;;;;;;;5.57;1.05;;;;;;;16.61;55.49;100669.88;4917138;29;20075;-61
2021/05/22 07:57:38;;;;;;;6.77;0.90;;;;;;;16.13;55.03;100604.78;4900725;29;20083;-60
2021/05/22 08:00:06;;;;;;;2.28;1.27;;;;;;;16.62;55.02;100660.28;4917585;29;20052;-61
2021/05/22 08:02:34;;;;;;;7.47;1.57;;;;;;;17.05;54.93;100690.81;4917636;29;20144;-62
2021/05/22 08:05:01;;;;;;;5.75;1.58;;;;;;;17.32;53.87;100694.66;4917018;29;20529;-61
2021/05/22 08:07:29;;;;;;;7.05;1.17;;;;;;;17.48;53.90;100698.75;4917296;29;20071;-60
2021/05/22 08:09:56;;;;;;;2.97;1.00;;;;;;;17.51;53.61;100661.41;4917121;29;20091;-61
2021/05/22 08:12:23;;;;;;;2.53;1.23;;;;;;;18.06;52.97;100694.88;4917137;29;20059;-62
2021/05/22 08:14:51;;;;;;;7.43;1.45;;;;;;;18.22;52.46;100689.59;4917173;29;20067;-62
2021/05/22 08:17:19;;;;;;;6.07;1.30;;;;;;;18.27;52.22;100694.28;4917071;29;20072;-60
2021/05/22 08:19:46;;;;;;;7.07;1.20;;;;;;;18.27;51.59;100695.09;4917248;29;20071;-60
2021/05/22 08:22:13;;;;;;;6.93;1.17;;;;;;;18.20;51.73;100714.53;4917059;29;20631;-60
2021/05/22 08:24:41;;;;;;;2.75;0.82;;;;;;;17.96;51.39;100692.34;4916762;29;20104;-58
2021/05/22 08:27:08;;;;;;;4.47;0.98;;;;;;;17.86;51.30;100699.13;4917067;29;20111;-59
2021/05/22 08:29:54;;;;;;;4.35;1.08;;;;;;;17.75;50.96;100689.25;4917635;29;20044;-59
2021/05/22 08:32:21;;;;;;;4.85;1.50;;;;;;;17.10;51.17;100591.97;4917110;29;20075;-59
2021/05/22 08:34:48;;;;;;;3.10;0.82;;;;;;;17.58;50.81;100697.66;4916897;29;20055;-59
2021/05/22 08:37:19;;;;;;;7.25;1.17;;;;;;;17.46;50.78;100689.75;4916479;29;20130;-60
2021/05/22 08:39:47;;;;;;;3.05;0.82;;;;;;;16.79;50.83;100592.75;4916882;29;20453;-59
2021/05/22 08:42:23;;;;;;;6.03;1.17;;;;;;;17.23;50.67;100687.00;4916496;29;20082;-59
2021/05/22 08:44:52;;;;;;;5.40;1.20;;;;;;;17.41;50.87;100689.91;4916761;29;20493;-59
2021/05/22 08:47:20;;;;;;;1.45;0.65;;;;;;;17.58;50.07;100695.66;4916635;29;20051;-60
2021/05/22 08:49:46;;;;;;;3.33;1.08;;;;;;;17.41;49.68;100675.81;4916491;29;20055;-59
2021/05/22 08:52:16;;;;;;;3.33;1.13;;;;;;;17.95;49.43;100700.00;4900435;29;20449;-59
2021/05/22 08:54:45;;;;;;;5.28;1.10;;;;;;;18.13;49.48;100680.28;4915656;29;20090;-59
2021/05/22 08:57:13;;;;;;;3.67;1.25;;;;;;;18.30;49.19;100679.50;4917036;29;20090;-60
2021/05/22 08:59:44;;;;;;;4.20;1.10;;;;;;;18.49;49.13;100696.97;4916511;29;20048;-60
2021/05/22 09:02:13;;;;;;;4.35;1.88;;;;;;;18.43;48.76;100692.66;4917324;29;20063;-60
2021/05/22 09:05:05;;;;;;;7.67;1.40;;;;;;;18.31;49.10;100703.75;4916536;29;20087;-59
2021/05/22 09:07:33;;;;;;;4.03;1.13;;;;;;;18.26;48.66;100689.81;4915616;29;20056;-59
2021/05/22 09:10:21;;;;;;;4.28;1.13;;;;;;;18.32;48.64;100700.59;4916408;29;20091;-59
2021/05/22 09:12:54;;;;;;;2.97;1.20;;;;;;;18.32;48.59;100699.75;4916545;29;20103;-60
2021/05/22 09:15:25;;;;;;;3.60;1.02;;;;;;;18.40;48.53;100704.63;4916770;29;20084;-60
2021/05/22 09:17:57;;;;;;;5.68;1.17;;;;;;;18.38;47.98;100692.81;4916740;29;20389;-59
2021/05/22 09:20:30;;;;;;;2.72;1.02;;;;;;;18.47;47.89;100702.13;4916447;29;20052;-59
2021/05/22 09:22:58;;;;;;;2.13;0.90;;;;;;;18.47;48.08;100704.97;4916675;29;20048;-59
2021/05/22 09:25:26;;;;;;;6.40;1.00;;;;;;;18.44;48.00;100697.97;4916560;29;20139;-59
2021/05/22 09:27:55;;;;;;;4.68;1.73;;;;;;;18.46;47.87;100700.44;4916483;29;20083;-59
2021/05/22 09:30:23;;;;;;;4.22;1.73;;;;;;;18.47;47.62;100707.78;4916275;29;20520;-60
2021/05/22 09:32:52;;;;;;;4.20;1.58;;;;;;;18.30;48.11;100685.97;4916534;29;20112;-59
2021/05/22 09:35:20;;;;;;;5.93;1.23;;;;;;;18.47;47.81;100716.28;4915223;29;20083;-60
2021/05/22 09:38:01;;;;;;;2.70;1.40;;;;;;;18.46;47.78;100711.75;4916249;29;20139;-59
2021/05/22 09:40:34;;;;;;;6.97;1.50;;;;;;;18.22;48.17;100698.06;4916411;29;20056;-58
2021/05/22 09:43:03;;;;;;;5.15;1.42;;;;;;;18.19;48.32;100716.53;4916977;29;20373;-60
2021/05/22 09:45:33;;;;;;;;;;;;;;;18.04;48.67;100711.31;4916553;29;20052;-60
2021/05/22 09:48:23;;;;;;;3.60;1.00;;;;;;;17.90;48.73;100722.75;4916381;29;19923;-59
2021/05/22 09:50:52;;;;;;;5.93;0.93;;;;;;;17.81;49.01;100729.50;4916203;29;20315;-60
2021/05/22 09:53:36;;;;;;;3.20;0.93;;;;;;;17.63;48.57;100720.09;4916437;29;20071;-60
2021/05/22 09:56:21;;;;;;;4.30;1.63;;;;;;;17.49;48.79;100714.53;4916302;29;20160;-59
2021/05/22 09:58:51;;;;;;;9.75;1.65;;;;;;;17.49;49.03;100734.28;4916902;29;20048;-60
2021/05/22 10:01:19;;;;;;;;;;;;;;;17.41;49.21;100732.25;4917519;29;20458;-59
2021/05/22 10:03:46;;;;;;;5.13;0.98;;;;;;;17.33;49.83;100730.19;4898922;29;19923;-59
2021/05/22 10:06:16;;;;;;;4.40;1.25;;;;;;;17.52;48.51;100747.78;4916162;29;20044;-59
2021/05/22 10:08:43;;;;;;;3.15;0.82;;;;;;;17.25;48.61;100743.09;4915664;29;20174;-59
2021/05/22 10:11:11;;;;;;;0.82;0.50;;;;;;;17.20;48.78;100754.53;4915785;29;20080;-59
2021/05/22 10:13:41;;;;;;;3.47;1.40;;;;;;;17.12;48.42;100747.66;4915907;29;20108;-59
2021/05/22 10:16:09;;;;;;;5.40;0.90;;;;;;;17.16;48.51;100751.53;4916015;29;20076;-60
2021/05/22 10:18:36;;;;;;;4.47;1.10;;;;;;;17.20;48.56;100729.97;4916096;29;20505;-59
2021/05/22 10:21:04;;;;;;;3.10;0.85;;;;;;;17.57;48.20;100738.31;4920234;29;20048;-59
2021/05/22 10:23:32;;;;;;;2.45;1.00;;;;;;;17.66;47.48;100748.50;4919019;29;20052;-59
2021/05/22 10:26:02;;;;;;;5.15;1.08;;;;;;;17.82;47.48;100748.16;4919525;29;20481;-60
2021/05/22 10:28:29;;;;;;;2.13;1.10;;;;;;;17.94;47.26;100751.19;4917891;29;20052;-58
2021/05/22 10:30:56;;;;;;;2.90;0.85;;;;;;;17.98;47.31;100721.09;4919082;29;20082;-60
2021/05/22 10:33:24;;;;;;;2.35;0.88;;;;;;;18.41;46.93;100752.34;4919786;29;20457;-60
2021/05/22 10:35:56;;;;;;;3.10;0.98;;;;;;;18.65;46.27;100732.09;4918968;29;20135;-60
2021/05/22 10:38:32;;;;;;;2.10;1.02;;;;;;;19.22;46.05;100752.97;4919027;29;20048;-60
2021/05/22 10:41:14;;;;;;;4.38;1.10;;;;;;;19.65;45.37;100765.06;4918662;29;20048;-60
2021/05/22 10:43:53;;;;;;;4.93;1.70;;;;;;;20.11;45.19;100771.94;4918790;29;20058;-59
2021/05/22 10:46:21;;;;;;;2.80;1.60;;;;;;;20.59;44.61;100770.75;4919073;29;20048;-60
2021/05/22 10:48:49;;;;;;;2.70;1.35;;;;;;;20.90;43.71;100780.88;4919301;29;20064;-59
2021/05/22 10:51:34;;;;;;;4.93;1.33;;;;;;;21.27;43.57;100772.56;4918642;29;20079;-59
2021/05/22 10:54:06;;;;;;;5.10;1.33;;;;;;;21.35;43.24;100757.47;4918580;29;20116;-59
2021/05/22 10:56:35;;;;;;;5.63;1.85;;;;;;;21.21;42.96;100745.56;4918743;29;20138;-60
2021/05/22 10:59:06;;;;;;;2.53;0.80;;;;;;;21.42;42.51;100785.34;4918591;29;20492;-60
2021/05/22 11:01:39;;;;;;;4.75;1.25;;;;;;;21.42;42.27;100779.66;4918720;29;20108;-60
2021/05/22 11:06:56;;;;;;;4.55;1.75;;;;;;;21.21;42.53;100771.94;4918611;29;20099;-60
2021/05/22 11:09:26;;;;;;;4.82;0.80;;;;;;;21.15;42.53;100759.13;4918572;29;20523;-59
2021/05/22 11:11:58;;;;;;;7.97;1.08;;;;;;;20.84;42.37;100765.22;4918734;29;20133;-59
2021/05/22 11:14:47;;;;;;;3.90;1.38;;;;;;;20.56;42.77;100764.91;4918632;29;20083;-58
2021/05/22 11:17:20;;;;;;;3.40;1.45;;;;;;;20.41;42.72;100752.13;4918446;29;20087;-58
2021/05/22 11:22:26;;;;;;;1.83;1.02;;;;;;;20.73;42.43;100759.13;4917840;29;20416;-59
2021/05/22 11:25:03;;;;;;;4.13;1.10;;;;;;;20.90;42.05;100746.81;4918031;29;20059;-58
2021/05/22 11:30:17;;;;;;;3.92;1.27;;;;;;;21.12;41.00;100751.31;4917300;29;20140;-58
2021/05/22 11:32:46;;;;;;;2.55;1.00;;;;;;;21.17;41.19;100751.09;4917342;29;20044;-58
2021/05/22 11:35:28;;;;;;;2.90;1.50;;;;;;;21.33;41.62;100747.63;4917918;29;20048;-59
2021/05/22 11:38:18;;;;;;;4.60;1.00;;;;;;;21.36;40.55;100742.09;4917445;29;20096;-59
2021/05/22 11:40:58;;;;;;;3.75;0.90;;;;;;;21.26;40.39;100733.97;4918115;29;20044;-58
2021/05/22 11:43:32;;;;;;;3.05;1.00;;;;;;;21.16;40.38;100737.25;4900941;29;20413;-59
2021/05/22 11:46:11;;;;;;;2.50;1.00;;;;;;;21.00;40.32;100743.56;4917363;29;20051;-59